Terminal Aerodrome Forecast
Issued by NWS Wilmington, OH

Current Version | Previous Version | Graphics & Text | Print | Product List | Glossary On
Versions: 1 2 3 4 5 6 7 8 9 10 11 12 13 14 15 16 17 18 19 20 21 22 23
156
FTUS41 KILN 292010 AAA
TAFDAY
TAF AMD
KDAY 292010Z 2920/3018 08007KT P6SM VCSH BKN045 BKN150
     FM292300 00000KT P6SM FEW040 SCT150
     FM300800 00000KT 3SM BR SCT002
      TEMPO 3009/3012 2SM BR BKN002
     FM301300 24006KT P6SM SCT002 BKN050=

USA.gov is the U.S. government's official web portal to all federal, state and local government web resources and services.